Time;durP1;ratioP1;P1;durP2;ratioP2;P2;SDS_P1;SDS_P2;PMS_P1;PMS_P2;Temp;Humidity;BMP_temperature;BMP_pressure;BME280_temperature;BME280_humidity;BME280_pressure;Samples;Min_cycle;Max_cycle;Signal;HPM_P1;HPM_P2
2021/12/07 00:01:30;;;;;;;33.63;18.98;;;2.60;99.90;;;;;;5052271;28;20151;-68
2021/12/07 00:03:56;;;;;;;29.48;18.48;;;2.60;99.90;;;;;;5054333;28;20388;-69
2021/12/07 00:06:22;;;;;;;32.13;18.17;;;2.60;99.90;;;;;;5054136;28;20045;-68
2021/12/07 00:08:53;;;;;;;34.65;19.23;;;2.60;99.90;;;;;;5063802;28;20044;-69
2021/12/07 00:11:20;;;;;;;34.95;19.65;;;2.60;99.90;;;;;;5054755;28;20044;-69
2021/12/07 00:13:45;;;;;;;31.52;18.88;;;2.70;99.90;;;;;;5052376;28;20044;-69
2021/12/07 00:16:11;;;;;;;34.10;20.38;;;2.60;99.90;;;;;;5070023;28;20040;-69
2021/12/07 00:18:38;;;;;;;31.45;19.40;;;2.60;99.90;;;;;;5053057;28;20044;-69
2021/12/07 00:21:05;;;;;;;32.75;19.33;;;2.60;99.90;;;;;;5070524;28;20114;-69
2021/12/07 00:23:32;;;;;;;32.35;18.75;;;2.50;99.90;;;;;;5068782;28;20048;-69
2021/12/07 00:25:58;;;;;;;33.30;19.15;;;2.50;99.90;;;;;;5042043;28;20445;-68
2021/12/07 00:28:24;;;;;;;34.00;19.33;;;2.50;99.90;;;;;;5057072;28;20040;-69
2021/12/07 00:30:51;;;;;;;30.30;18.55;;;2.50;99.90;;;;;;5069402;28;20032;-69
2021/12/07 00:35:45;;;;;;;30.83;18.90;;;2.50;99.90;;;;;;5069232;28;20072;-69
2021/12/07 00:38:18;;;;;;;32.90;20.08;;;2.50;99.90;;;;;;5069614;28;20437;-69
2021/12/07 00:40:44;;;;;;;31.77;19.38;;;2.50;99.90;;;;;;5051426;28;20060;-69
2021/12/07 00:43:11;;;;;;;31.67;19.30;;;2.50;99.90;;;;;;5067308;28;20044;-69
2021/12/07 00:45:38;;;;;;;30.10;18.55;;;2.40;99.90;;;;;;5069862;28;20045;-69
2021/12/07 00:48:05;;;;;;;30.33;18.52;;;2.50;99.90;;;;;;5051582;28;20072;-69
2021/12/07 00:50:33;;;;;;;30.15;18.60;;;2.30;99.90;;;;;;5046028;28;20486;-69
2021/12/07 00:53:02;;;;;;;31.73;18.58;;;2.40;99.90;;;;;;5036949;28;20082;-69
2021/12/07 00:55:31;;;;;;;27.65;17.42;;;2.40;99.90;;;;;;5068138;28;20040;-69
2021/12/07 00:58:00;;;;;;;28.52;18.15;;;2.30;99.90;;;;;;5068955;28;20149;-69
2021/12/07 01:00:28;;;;;;;29.45;17.70;;;2.20;99.90;;;;;;5065146;28;20106;-69
2021/12/07 01:02:54;;;;;;;27.85;17.55;;;2.20;99.90;;;;;;5031216;28;20045;-69
2021/12/07 01:05:27;;;;;;;30.50;17.77;;;2.20;99.90;;;;;;5047824;28;20052;-69
2021/12/07 01:26:53;;;;;;;28.70;17.60;;;1.70;99.90;;;;;;5058559;28;20052;-69
2021/12/07 01:29:23;;;;;;;30.33;18.08;;;1.70;99.90;;;;;;5068203;28;20086;-69
2021/12/07 01:39:38;;;;;;;30.08;17.98;;;1.70;99.90;;;;;;5050217;28;20127;-69
2021/12/07 01:45:18;;;;;;;29.48;17.35;;;1.70;99.90;;;;;;5048432;28;20556;-69
2021/12/07 01:50:26;;;;;;;30.85;18.17;;;1.70;99.90;;;;;;5037952;28;20068;-69
2021/12/07 02:00:32;;;;;;;27.42;17.40;;;1.60;99.90;;;;;;5040877;28;20087;-69
2021/12/07 02:02:57;;;;;;;28.45;16.92;;;1.60;99.90;;;;;;5058784;28;20040;-69
2021/12/07 02:05:23;;;;;;;28.15;17.83;;;1.60;99.90;;;;;;5036261;28;20052;-69
2021/12/07 02:07:49;;;;;;;26.20;16.95;;;1.60;99.90;;;;;;5032271;28;20048;-69
2021/12/07 02:10:19;;;;;;;29.95;17.67;;;1.60;99.90;;;;;;5035390;28;20099;-69
2021/12/07 02:12:47;;;;;;;27.60;17.15;;;1.70;99.90;;;;;;5048219;28;20126;-69
2021/12/07 02:15:16;;;;;;;29.13;18.08;;;1.60;99.90;;;;;;5031864;28;20052;-69
2021/12/07 02:17:42;;;;;;;27.10;17.45;;;1.60;99.90;;;;;;5065721;28;20105;-69
2021/12/07 02:20:09;;;;;;;28.80;17.85;;;1.60;99.90;;;;;;5067830;28;20057;-69
2021/12/07 02:22:35;;;;;;;28.17;17.40;;;1.60;99.90;;;;;;5067028;28;20081;-69
2021/12/07 02:25:02;;;;;;;31.10;16.63;;;1.60;99.90;;;;;;5067487;28;20045;-69
2021/12/07 02:27:28;;;;;;;26.02;16.85;;;1.60;99.90;;;;;;5048676;28;20529;-69
2021/12/07 02:29:54;;;;;;;26.80;17.52;;;1.50;99.90;;;;;;5049934;28;20135;-69
2021/12/07 02:32:19;;;;;;;28.38;17.38;;;2.90;99.90;;;;;;5066962;28;20079;-69
2021/12/07 02:34:54;;;;;;;26.85;16.98;;;1.60;99.90;;;;;;5049834;28;20493;-69
2021/12/07 02:37:28;;;;;;;29.05;17.98;;;1.60;99.90;;;;;;5067341;28;20052;-69
2021/12/07 02:39:54;;;;;;;26.83;17.60;;;1.70;99.90;;;;;;5051843;28;20084;-68
2021/12/07 02:42:21;;;;;;;27.85;16.98;;;1.70;99.90;;;;;;5034752;28;20052;-68
2021/12/07 02:44:47;;;;;;;29.60;18.45;;;1.70;99.90;;;;;;5048027;28;20041;-70
2021/12/07 02:47:12;;;;;;;31.00;18.30;;;1.60;99.90;;;;;;5063338;28;20093;-69
2021/12/07 02:49:38;;;;;;;27.77;17.77;;;1.70;99.90;;;;;;5040791;28;20037;-69
2021/12/07 02:52:05;;;;;;;29.00;18.23;;;1.70;99.90;;;;;;5045655;28;20059;-68
2021/12/07 02:54:32;;;;;;;29.02;18.40;;;1.70;99.90;;;;;;5066674;28;20053;-69
2021/12/07 02:56:57;;;;;;;28.40;18.08;;;1.70;99.90;;;;;;5066676;28;20090;-69
2021/12/07 02:59:24;;;;;;;28.25;18.02;;;1.70;99.90;;;;;;5065533;28;20347;-69
2021/12/07 03:02:04;;;;;;;28.08;17.73;;;1.80;99.90;;;;;;5058729;28;20056;-69
2021/12/07 03:04:37;;;;;;;26.25;16.33;;;2.50;99.90;;;;;;5046574;28;20430;-69
2021/12/07 03:09:55;;;;;;;30.55;18.40;;;1.70;99.90;;;;;;5052868;28;20195;-69
2021/12/07 03:28:23;;;;;;;26.70;17.23;;;1.70;99.90;;;;;;5058234;28;20060;-69
2021/12/07 03:30:48;;;;;;;26.10;17.23;;;1.70;99.90;;;;;;5045905;28;20049;-69
2021/12/07 03:33:14;;;;;;;26.83;17.00;;;1.60;99.90;;;;;;5032000;28;20123;-69
2021/12/07 03:35:40;;;;;;;31.25;17.65;;;1.70;99.90;;;;;;5053143;28;20421;-70
2021/12/07 03:38:08;;;;;;;28.33;17.30;;;1.70;99.90;;;;;;5051629;28;20045;-69
2021/12/07 03:40:35;;;;;;;25.52;16.00;;;1.80;99.90;;;;;;5054622;28;20155;-69
2021/12/07 03:43:03;;;;;;;24.85;16.60;;;1.80;99.90;;;;;;5052878;28;20474;-69
2021/12/07 03:45:28;;;;;;;29.83;17.23;;;1.80;99.90;;;;;;5052407;28;20048;-70
2021/12/07 03:47:54;;;;;;;25.73;16.77;;;1.80;99.90;;;;;;5069587;28;20118;-69
2021/12/07 03:50:22;;;;;;;27.08;15.85;;;2.10;99.90;;;;;;5071602;28;20106;-69
2021/12/07 03:52:49;;;;;;;24.85;15.50;;;1.80;99.90;;;;;;5068815;28;20404;-69
2021/12/07 03:55:15;;;;;;;26.73;16.05;;;1.70;99.90;;;;;;5035306;28;20135;-70
2021/12/07 03:57:41;;;;;;;27.23;16.67;;;1.70;99.90;;;;;;5071628;28;20445;-69
2021/12/07 04:00:11;;;;;;;26.13;16.05;;;1.70;99.90;;;;;;5070003;28;20055;-69
2021/12/07 04:02:40;;;;;;;27.20;16.27;;;1.70;99.90;;;;;;5064452;28;20395;-69
2021/12/07 04:05:15;;;;;;;28.27;16.73;;;1.70;99.90;;;;;;5050305;28;20076;-69
2021/12/07 04:07:42;;;;;;;26.10;16.02;;;1.60;99.90;;;;;;5058684;28;20106;-69
2021/12/07 04:10:10;;;;;;;25.85;15.13;;;1.60;99.90;;;;;;5066470;28;20080;-69
2021/12/07 04:12:36;;;;;;;26.20;15.35;;;1.50;99.90;;;;;;5048881;28;20099;-69
2021/12/07 04:15:05;;;;;;;24.77;15.43;;;1.60;99.90;;;;;;5050450;28;20401;-69
2021/12/07 04:17:31;;;;;;;26.25;14.85;;;1.60;99.90;;;;;;5050983;28;20045;-69
2021/12/07 04:19:57;;;;;;;26.85;15.95;;;1.50;99.90;;;;;;5032720;28;20045;-69
2021/12/07 04:22:23;;;;;;;26.45;16.00;;;1.50;99.90;;;;;;5068978;28;20044;-69
2021/12/07 04:24:48;;;;;;;28.27;15.45;;;1.50;99.90;;;;;;5039960;28;20076;-69
2021/12/07 04:27:14;;;;;;;25.38;15.07;;;1.40;99.90;;;;;;5014702;28;20057;-69
2021/12/07 04:29:40;;;;;;;23.83;14.93;;;1.40;99.90;;;;;;5052571;28;20367;-69
2021/12/07 04:32:06;;;;;;;26.23;15.35;;;1.40;99.90;;;;;;5051528;28;20095;-69
2021/12/07 04:34:32;;;;;;;23.80;14.73;;;1.40;99.90;;;;;;5032625;28;20048;-70
2021/12/07 04:36:58;;;;;;;25.38;14.82;;;1.90;99.90;;;;;;5051036;28;20157;-69
2021/12/07 04:39:23;;;;;;;24.73;14.45;;;1.40;99.90;;;;;;5061231;28;20475;-69
2021/12/07 04:41:50;;;;;;;23.77;14.95;;;1.40;99.90;;;;;;5057633;28;20041;-69
2021/12/07 04:44:16;;;;;;;28.40;14.50;;;1.40;99.90;;;;;;5064711;28;20053;-69
2021/12/07 04:46:55;;;;;;;27.23;14.57;;;1.40;99.90;;;;;;5064735;28;20059;-69
2021/12/07 04:57:45;;;;;;;27.50;15.00;;;1.40;99.90;;;;;;5058529;28;20490;-70
2021/12/07 05:00:20;;;;;;;24.88;13.57;;;1.40;99.90;;;;;;5060594;28;20455;-69
2021/12/07 05:02:52;;;;;;;26.05;14.20;;;3.00;99.90;;;;;;5042575;28;20060;-69
2021/12/07 05:05:19;;;;;;;25.88;13.93;;;1.40;99.90;;;;;;5048207;28;20056;-69
2021/12/07 05:07:50;;;;;;;25.48;13.43;;;1.50;99.90;;;;;;5052572;28;20123;-70
2021/12/07 05:10:29;;;;;;;24.13;13.75;;;1.50;99.90;;;;;;5032816;28;20128;-69
2021/12/07 05:16:31;;;;;;;28.60;13.93;;;1.50;99.90;;;;;;5059364;28;20133;-69
2021/12/07 05:18:40;;;;;;;25.42;13.77;;;1.50;99.90;;;;;;5025044;28;20045;-69
2021/12/07 05:24:03;;;;;;;26.65;13.75;;;1.60;99.90;;;;;;5042236;28;20052;-69
2021/12/07 05:40:30;;;;;;;25.98;13.55;;;1.70;99.90;;;;;;5050651;28;20131;-70
2021/12/07 05:42:57;;;;;;;23.10;12.15;;;1.80;99.90;;;;;;5051597;28;20052;-69
2021/12/07 05:45:30;;;;;;;22.33;12.55;;;1.80;99.90;;;;;;5055678;28;20490;-69
2021/12/07 05:47:56;;;;;;;24.85;13.15;;;1.80;99.90;;;;;;5042540;28;20128;-69
2021/12/07 05:50:26;;;;;;;23.17;12.93;;;1.90;99.90;;;;;;5045834;28;20534;-70
2021/12/07 05:52:52;;;;;;;24.08;11.80;;;1.90;99.90;;;;;;5048128;28;20075;-69
2021/12/07 05:55:18;;;;;;;22.35;12.30;;;1.90;99.90;;;;;;5048371;28;20377;-69
2021/12/07 05:57:44;;;;;;;25.23;12.45;;;1.90;99.90;;;;;;5062471;28;20060;-69
2021/12/07 06:00:15;;;;;;;24.55;12.77;;;2.00;99.90;;;;;;5062746;28;20076;-70
2021/12/07 06:02:40;;;;;;;23.50;11.52;;;2.00;99.90;;;;;;5058652;28;20041;-70
2021/12/07 06:05:07;;;;;;;25.30;11.90;;;2.00;99.90;;;;;;5030067;28;20493;-69
2021/12/07 06:07:33;;;;;;;24.70;10.43;;;1.90;99.90;;;;;;5047633;28;20059;-69
2021/12/07 06:09:58;;;;;;;22.08;11.00;;;2.00;99.90;;;;;;5049601;28;20120;-70
2021/12/07 06:12:24;;;;;;;24.38;11.70;;;2.00;99.90;;;;;;5047442;28;20168;-70
2021/12/07 06:14:49;;;;;;;19.08;10.70;;;2.00;99.90;;;;;;5046473;28;20048;-69
2021/12/07 06:17:15;;;;;;;22.63;10.80;;;2.00;99.90;;;;;;5045793;28;20059;-70
2021/12/07 06:19:41;;;;;;;18.48;10.25;;;2.10;99.90;;;;;;5028920;28;20401;-69
2021/12/07 06:22:08;;;;;;;21.48;10.23;;;2.20;99.90;;;;;;5067788;28;20056;-70
2021/12/07 06:24:34;;;;;;;21.88;10.13;;;2.20;99.90;;;;;;5040365;28;20144;-69
2021/12/07 06:27:00;;;;;;;24.27;10.55;;;2.20;99.90;;;;;;5030876;28;20127;-69
2021/12/07 06:29:26;;;;;;;18.95;10.25;;;2.30;99.90;;;;;;5027712;28;20423;-69
2021/12/07 06:31:53;;;;;;;18.92;9.82;;;2.20;99.90;;;;;;5039259;28;20049;-69
2021/12/07 06:34:19;;;;;;;18.48;10.98;;;2.20;99.90;;;;;;5046102;28;20049;-69
2021/12/07 06:36:45;;;;;;;20.25;9.95;;;2.30;99.90;;;;;;5014564;28;20051;-69
2021/12/07 06:39:10;;;;;;;21.83;10.55;;;2.30;99.90;;;;;;5066001;28;20048;-69
2021/12/07 06:41:36;;;;;;;15.88;9.40;;;2.30;99.90;;;;;;5040926;28;20045;-69
2021/12/07 06:44:03;;;;;;;18.35;9.52;;;2.30;99.90;;;;;;5048129;28;20037;-69
2021/12/07 06:46:29;;;;;;;20.35;9.65;;;2.30;99.90;;;;;;5047474;28;20493;-69
2021/12/07 06:48:56;;;;;;;20.90;9.50;;;2.30;99.90;;;;;;5045648;28;20042;-69
2021/12/07 06:51:22;;;;;;;21.83;9.32;;;2.30;99.90;;;;;;5058784;28;20052;-69
2021/12/07 06:53:48;;;;;;;15.93;9.07;;;2.30;99.90;;;;;;5047953;28;20085;-69
2021/12/07 06:56:14;;;;;;;19.60;9.32;;;2.30;99.90;;;;;;5033377;28;20068;-68
2021/12/07 06:58:39;;;;;;;16.70;9.20;;;2.30;99.90;;;;;;5048887;28;20086;-69
2021/12/07 07:01:07;;;;;;;19.13;9.18;;;2.30;99.90;;;;;;5058446;28;20041;-69
2021/12/07 07:03:33;;;;;;;17.73;9.25;;;2.30;99.90;;;;;;5045478;28;20117;-69
2021/12/07 07:06:00;;;;;;;21.20;9.35;;;3.80;99.90;;;;;;5057015;28;20099;-69
2021/12/07 07:08:26;;;;;;;17.92;8.60;;;2.40;99.90;;;;;;5068099;28;20048;-68
2021/12/07 07:10:52;;;;;;;16.85;8.73;;;2.50;99.90;;;;;;5070326;28;20102;-69
2021/12/07 07:13:17;;;;;;;16.88;8.65;;;2.50;99.90;;;;;;5050575;28;20128;-69
2021/12/07 07:15:43;;;;;;;15.80;8.73;;;2.50;99.90;;;;;;5065222;28;20045;-69
2021/12/07 07:18:09;;;;;;;15.90;9.20;;;2.50;99.90;;;;;;5031701;28;20052;-69
2021/12/07 07:20:35;;;;;;;20.23;9.18;;;2.40;99.90;;;;;;5032897;28;20461;-69
2021/12/07 07:23:01;;;;;;;15.68;8.18;;;2.40;99.90;;;;;;5032243;28;20049;-69
2021/12/07 07:25:27;;;;;;;18.13;8.25;;;2.40;99.90;;;;;;5052438;28;20090;-68
2021/12/07 07:27:52;;;;;;;17.52;8.98;;;3.80;99.90;;;;;;5051331;28;20057;-68
2021/12/07 07:30:18;;;;;;;17.88;8.70;;;2.40;99.90;;;;;;5049274;28;20045;-69
2021/12/07 07:32:45;;;;;;;18.45;9.25;;;2.40;99.90;;;;;;5050270;28;20510;-68
2021/12/07 07:35:12;;;;;;;16.60;8.07;;;2.40;99.90;;;;;;5052904;28;20056;-69
2021/12/07 07:37:38;;;;;;;16.33;8.38;;;2.40;99.90;;;;;;5050676;28;20048;-69
2021/12/07 07:40:07;;;;;;;23.08;8.50;;;2.50;99.90;;;;;;5051300;28;20044;-69
2021/12/07 07:42:33;;;;;;;16.23;8.13;;;2.50;99.90;;;;;;5031420;28;20505;-69
2021/12/07 07:44:59;;;;;;;17.52;8.10;;;2.60;99.90;;;;;;5032790;28;20526;-69
2021/12/07 07:47:25;;;;;;;18.58;8.63;;;2.60;99.90;;;;;;5048769;28;20170;-69
2021/12/07 07:49:50;;;;;;;20.60;9.05;;;2.60;99.90;;;;;;5032359;28;20457;-69
2021/12/07 07:52:16;;;;;;;22.02;9.68;;;2.60;99.90;;;;;;5049045;28;20045;-69
2021/12/07 07:54:42;;;;;;;20.35;9.20;;;2.60;99.90;;;;;;5032690;28;20049;-69
2021/12/07 07:57:07;;;;;;;21.35;8.25;;;2.60;99.90;;;;;;5049362;28;20059;-69
2021/12/07 07:59:33;;;;;;;20.08;8.80;;;2.60;99.90;;;;;;5049919;28;20120;-70
2021/12/07 08:01:59;;;;;;;17.67;8.93;;;2.50;99.90;;;;;;5049995;28;20094;-71
2021/12/07 08:04:24;;;;;;;19.17;8.90;;;2.50;99.90;;;;;;5030493;28;20106;-69
2021/12/07 08:06:50;;;;;;;21.42;8.95;;;2.60;99.90;;;;;;5050675;28;20406;-70
2021/12/07 08:09:16;;;;;;;16.55;8.48;;;2.60;99.90;;;;;;5064197;28;20076;-70
2021/12/07 08:11:41;;;;;;;18.63;8.98;;;2.60;99.90;;;;;;5069123;28;20481;-72
2021/12/07 08:14:07;;;;;;;16.48;8.43;;;2.60;99.90;;;;;;5051586;28;20078;-72
2021/12/07 08:16:33;;;;;;;26.33;8.70;;;2.60;99.90;;;;;;5063617;28;20041;-71
2021/12/07 08:18:59;;;;;;;17.95;8.32;;;2.60;99.90;;;;;;5052301;28;20500;-71
2021/12/07 08:21:24;;;;;;;15.73;8.23;;;2.60;99.90;;;;;;5043409;28;20049;-71
2021/12/07 08:23:50;;;;;;;18.02;8.63;;;2.70;99.90;;;;;;5069660;28;20044;-71
2021/12/07 08:26:19;;;;;;;20.30;8.50;;;2.80;99.90;;;;;;5068970;28;20491;-70
2021/12/07 08:28:45;;;;;;;16.52;8.40;;;2.80;99.90;;;;;;5038410;28;20076;-70
2021/12/07 08:31:11;;;;;;;17.27;7.65;;;2.90;99.90;;;;;;5031116;28;20143;-71
2021/12/07 08:33:37;;;;;;;15.80;7.93;;;2.90;99.90;;;;;;5053412;28;20111;-72
2021/12/07 08:36:03;;;;;;;16.80;8.05;;;3.00;99.90;;;;;;5070754;28;20090;-72
2021/12/07 08:38:29;;;;;;;16.88;8.52;;;3.00;99.90;;;;;;5069629;28;20171;-71
2021/12/07 08:40:56;;;;;;;17.55;7.90;;;3.10;99.90;;;;;;5050971;28;20436;-71
2021/12/07 08:43:25;;;;;;;16.45;7.65;;;3.20;99.90;;;;;;5051613;28;20406;-71
2021/12/07 08:45:56;;;;;;;18.88;8.30;;;3.30;99.90;;;;;;5047778;28;20045;-71
2021/12/07 08:48:22;;;;;;;18.25;8.40;;;3.40;99.90;;;;;;5048238;28;20116;-71
2021/12/07 08:50:48;;;;;;;14.98;8.13;;;3.40;99.90;;;;;;5048862;28;20053;-70
2021/12/07 08:53:16;;;;;;;15.70;7.55;;;3.50;99.90;;;;;;5030117;28;20151;-71
2021/12/07 09:01:15;;;;;;;15.80;6.90;;;3.70;99.90;;;;;;5067752;28;20481;-72
2021/12/07 09:03:41;;;;;;;12.60;6.82;;;3.70;99.90;;;;;;5052478;28;20044;-71
2021/12/07 09:06:07;;;;;;;14.65;6.78;;;3.90;99.90;;;;;;5068988;28;20124;-72
2021/12/07 09:08:33;;;;;;;13.80;6.78;;;5.20;99.90;;;;;;5067937;28;20101;-71
2021/12/07 09:10:58;;;;;;;14.70;6.90;;;4.10;99.90;;;;;;5051647;28;20049;-69
2021/12/07 09:13:26;;;;;;;13.38;6.57;;;4.30;99.90;;;;;;5066384;28;20108;-69
2021/12/07 09:15:53;;;;;;;12.73;6.18;;;4.40;99.90;;;;;;5064727;28;20397;-70
2021/12/07 09:18:19;;;;;;;11.25;6.10;;;4.80;99.90;;;;;;5030067;28;20142;-70
2021/12/07 09:20:44;;;;;;;12.48;6.03;;;5.40;99.90;;;;;;5031020;28;20500;-71
2021/12/07 09:23:10;;;;;;;9.65;5.82;;;6.00;99.90;;;;;;5048029;28;20048;-71
2021/12/07 09:25:36;;;;;;;13.70;5.03;;;6.50;99.90;;;;;;5050264;28;20037;-71
2021/12/07 09:28:02;;;;;;;9.60;5.40;;;6.80;99.90;;;;;;5048475;28;20506;-71
2021/12/07 09:30:28;;;;;;;14.18;5.13;;;7.00;99.90;;;;;;5019136;28;20044;-71
2021/12/07 09:32:54;;;;;;;10.05;4.65;;;7.40;99.90;;;;;;5052254;28;20051;-71
2021/12/07 09:35:21;;;;;;;12.15;5.13;;;7.80;99.90;;;;;;5068795;28;20055;-71
2021/12/07 09:37:48;;;;;;;8.63;4.22;;;7.70;99.90;;;;;;5068602;28;20393;-71
2021/12/07 09:40:16;;;;;;;9.25;4.50;;;8.10;99.90;;;;;;5067812;28;20055;-72
2021/12/07 09:42:42;;;;;;;12.00;3.90;;;8.30;99.90;;;;;;5049631;28;20500;-71
2021/12/07 09:45:11;;;;;;;12.52;4.22;;;9.00;99.90;;;;;;5050122;28;20517;-72
2021/12/07 09:47:37;;;;;;;9.85;3.78;;;9.40;99.90;;;;;;5048986;28;20076;-71
2021/12/07 09:50:04;;;;;;;8.40;4.00;;;9.60;99.90;;;;;;5051834;28;20138;-72
2021/12/07 09:52:30;;;;;;;8.82;3.72;;;9.30;99.90;;;;;;5028953;28;20498;-72
2021/12/07 09:54:56;;;;;;;8.90;3.90;;;9.70;99.90;;;;;;5030643;28;20047;-72
2021/12/07 09:57:22;;;;;;;11.45;4.00;;;9.30;99.90;;;;;;5047207;28;20091;-72
2021/12/07 09:59:48;;;;;;;11.75;4.03;;;9.50;99.90;;;;;;5048387;28;20041;-72
2021/12/07 10:02:14;;;;;;;10.30;3.95;;;9.20;99.90;;;;;;5046738;28;20469;-73
2021/12/07 10:04:39;;;;;;;8.50;4.00;;;9.60;99.90;;;;;;5047335;28;20048;-73
2021/12/07 10:07:08;;;;;;;7.15;3.67;;;9.00;99.90;;;;;;5036460;28;20139;-72
2021/12/07 10:09:35;;;;;;;8.85;3.90;;;9.20;99.90;;;;;;5067086;28;20136;-73
2021/12/07 10:12:01;;;;;;;8.57;3.70;;;9.60;99.90;;;;;;5047657;28;20193;-73
2021/12/07 10:14:38;;;;;;;13.43;4.05;;;10.20;99.90;;;;;;5029944;28;20045;-70
2021/12/07 10:17:04;;;;;;;10.07;3.80;;;10.20;99.90;;;;;;5047222;28;20037;-72
2021/12/07 10:19:35;;;;;;;10.32;4.10;;;10.50;99.90;;;;;;5028113;28;20055;-72
2021/12/07 10:22:19;;;;;;;19.75;4.10;;;10.40;99.90;;;;;;5065060;28;20126;-71
2021/12/07 10:24:59;;;;;;;12.30;3.83;;;10.50;99.90;;;;;;5033398;28;20150;-71
2021/12/07 10:27:44;;;;;;;9.50;3.80;;;10.30;99.90;;;;;;5050133;28;20433;-71
2021/12/07 10:30:18;;;;;;;9.55;3.53;;;11.20;99.90;;;;;;5032283;28;20460;-72
2021/12/07 10:32:57;;;;;;;8.45;3.65;;;11.00;99.90;;;;;;5066386;28;20060;-72
2021/12/07 10:35:36;;;;;;;7.78;3.20;;;11.00;99.90;;;;;;5047173;28;20044;-72
2021/12/07 10:38:16;;;;;;;7.75;3.40;;;11.90;99.90;;;;;;5053332;28;20073;-72
2021/12/07 10:41:09;;;;;;;10.52;3.30;;;11.70;99.90;;;;;;5037284;28;20055;-72
2021/12/07 10:43:43;;;;;;;9.13;2.95;;;12.80;99.90;;;;;;5051262;28;20048;-72
2021/12/07 10:46:33;;;;;;;10.40;3.47;;;12.30;99.90;;;;;;5039682;28;20105;-72
2021/12/07 10:49:19;;;;;;;11.13;3.60;;;12.10;99.90;;;;;;5050557;28;20068;-72
2021/12/07 10:52:13;;;;;;;14.38;3.97;;;11.70;99.90;;;;;;5051055;28;20061;-72
2021/12/07 10:54:44;;;;;;;9.48;3.53;;;11.80;99.90;;;;;;5025101;28;20486;-72
2021/12/07 10:57:33;;;;;;;9.43;3.30;;;12.80;99.90;;;;;;5050995;28;20127;-72
2021/12/07 11:00:07;;;;;;;8.65;3.50;;;13.30;99.90;;;;;;5008950;28;20052;-72
2021/12/07 11:02:36;;;;;;;8.75;3.15;;;13.80;99.90;;;;;;5023976;28;20345;-72
2021/12/07 11:05:08;;;;;;;9.10;3.20;;;14.10;99.90;;;;;;5066912;28;20449;-72
2021/12/07 11:07:35;;;;;;;11.18;3.45;;;13.40;99.90;;;;;;5037160;28;20509;-72
2021/12/07 11:10:27;;;;;;;11.68;3.40;;;13.40;99.90;;;;;;5055855;28;20070;-73
2021/12/07 11:15:34;;;;;;;11.90;3.53;;;14.10;99.90;;;;;;5061019;28;20476;-71
2021/12/07 11:18:10;;;;;;;9.70;3.83;;;14.20;99.90;;;;;;5059487;28;20068;-73
2021/12/07 11:20:37;;;;;;;13.20;4.20;;;14.30;99.90;;;;;;5069367;28;20045;-73
2021/12/07 11:23:11;;;;;;;9.65;3.40;;;13.90;99.90;;;;;;5052177;28;20044;-73
2021/12/07 11:31:37;;;;;;;9.98;3.60;;;14.80;99.90;;;;;;5045918;28;20057;-73
2021/12/07 11:34:15;;;;;;;10.15;3.78;;;15.00;99.90;;;;;;5028894;28;20053;-73
2021/12/07 11:36:51;;;;;;;11.07;3.72;;;14.70;99.90;;;;;;5028706;28;20056;-74
2021/12/07 11:39:31;;;;;;;11.68;3.78;;;14.80;99.90;;;;;;5045520;28;20548;-73
2021/12/07 11:42:10;;;;;;;8.48;3.08;;;15.90;99.90;;;;;;5030355;28;20517;-74
2021/12/07 11:44:46;;;;;;;10.18;3.70;;;16.00;99.90;;;;;;5066710;28;20155;-73
2021/12/07 11:47:12;;;;;;;11.93;3.60;;;16.80;99.90;;;;;;5065503;28;20504;-73
2021/12/07 11:49:38;;;;;;;7.95;3.20;;;17.60;99.10;;;;;;5045395;28;20045;-73
2021/12/07 11:52:06;;;;;;;10.18;3.72;;;17.70;97.20;;;;;;5051017;28;20048;-73
2021/12/07 11:54:36;;;;;;;10.73;3.50;;;16.90;98.70;;;;;;5047227;28;20059;-74
2021/12/07 11:57:05;;;;;;;7.78;3.05;;;17.30;97.80;;;;;;5045846;28;20059;-73
2021/12/07 11:59:30;;;;;;;9.02;3.33;;;17.80;96.80;;;;;;5046417;28;20099;-73
2021/12/07 12:01:56;;;;;;;10.07;3.75;;;18.00;97.00;;;;;;5047636;28;20057;-72
2021/12/07 12:04:22;;;;;;;9.68;3.67;;;18.60;96.50;;;;;;5029786;28;20126;-73
2021/12/07 12:06:50;;;;;;;12.57;3.45;;;17.10;97.40;;;;;;5047466;28;20071;-72
2021/12/07 12:09:17;;;;;;;12.90;3.58;;;17.80;96.70;;;;;;5028285;28;20053;-73
2021/12/07 12:12:10;;;;;;;9.50;3.40;;;16.80;97.30;;;;;;5053455;28;20044;-73
2021/12/07 12:14:46;;;;;;;9.77;3.42;;;17.70;96.80;;;;;;5048707;28;20052;-72
2021/12/07 12:17:14;;;;;;;;;;;18.70;96.20;;;;;;5049042;28;20765;-73
2021/12/07 12:20:22;;;;;;;12.27;3.88;;;18.20;94.00;;;;;;5046280;28;20361;-73
2021/12/07 12:23:15;;;;;;;10.68;3.17;;;18.50;94.30;;;;;;5046768;28;20048;-73
2021/12/07 12:25:41;;;;;;;8.65;3.60;;;19.30;94.00;;;;;;5054122;28;20041;-73
2021/12/07 12:28:07;;;;;;;8.35;3.70;;;19.50;92.90;;;;;;5040623;28;20591;-73
2021/12/07 12:30:37;;;;;;;9.82;3.38;;;18.90;94.00;;;;;;5070566;28;20485;-73
2021/12/07 12:33:10;;;;;;;10.95;3.13;;;19.50;92.50;;;;;;5063771;28;20250;-73
2021/12/07 12:35:42;;;;;;;12.23;3.45;;;20.20;91.40;;;;;;5077892;28;20085;-74
2021/12/07 12:38:26;;;;;;;11.38;4.10;;;21.20;90.30;;;;;;5058313;28;20076;-73
2021/12/07 12:41:01;;;;;;;15.20;4.80;;;20.20;84.80;;;;;;5039183;28;20523;-73
2021/12/07 12:43:54;;;;;;;9.98;4.00;;;19.70;89.40;;;;;;5041649;28;20041;-74
2021/12/07 12:46:30;;;;;;;9.90;3.88;;;19.20;88.00;;;;;;5047715;28;20047;-74
2021/12/07 12:48:58;;;;;;;8.82;3.42;;;17.40;91.30;;;;;;5068605;28;20060;-74
2021/12/07 12:51:30;;;;;;;9.70;3.65;;;15.00;95.70;;;;;;5050483;28;20044;-74
2021/12/07 12:53:57;;;;;;;9.32;3.20;;;14.30;99.40;;;;;;5048959;28;20536;-74
2021/12/07 12:56:30;;;;;;;10.38;3.30;;;12.80;99.90;;;;;;5050844;28;20539;-74
2021/12/07 12:59:01;;;;;;;12.75;3.28;;;12.40;99.90;;;;;;5068383;28;20097;-74
2021/12/07 13:01:32;;;;;;;10.45;3.20;;;11.80;99.90;;;;;;5029525;28;20109;-73
2021/12/07 13:04:04;;;;;;;11.00;3.10;;;11.10;99.90;;;;;;5068540;28;20146;-75
2021/12/07 13:06:33;;;;;;;10.88;3.08;;;10.60;99.90;;;;;;5065777;28;20128;-74
2021/12/07 13:09:05;;;;;;;10.63;3.72;;;11.30;99.90;;;;;;5042289;28;20063;-74
2021/12/07 13:11:41;;;;;;;10.80;3.30;;;10.20;99.90;;;;;;5048090;28;20347;-75
2021/12/07 13:14:31;;;;;;;12.27;3.72;;;9.90;99.90;;;;;;5047851;28;20049;-74
2021/12/07 13:17:00;;;;;;;13.85;3.60;;;9.90;99.90;;;;;;5028559;28;20060;-75
2021/12/07 13:19:28;;;;;;;9.75;3.20;;;9.70;99.90;;;;;;5029497;28;20056;-74
2021/12/07 13:21:55;;;;;;;14.30;4.20;;;9.50;99.90;;;;;;5030435;28;20110;-74
2021/12/07 13:24:35;;;;;;;16.50;4.13;;;9.10;99.90;;;;;;5067491;28;20123;-74
2021/12/07 13:27:10;;;;;;;9.20;3.20;;;8.90;99.90;;;;;;5047230;28;20112;-75
2021/12/07 13:29:38;;;;;;;13.75;3.75;;;8.70;99.90;;;;;;5030646;28;20430;-74
2021/12/07 13:32:05;;;;;;;13.00;3.60;;;8.80;99.90;;;;;;5047900;28;20057;-75
2021/12/07 13:34:33;;;;;;;10.25;3.58;;;8.80;99.90;;;;;;5028316;28;20059;-75
2021/12/07 13:37:02;;;;;;;14.68;3.90;;;8.60;99.90;;;;;;5031079;28;20132;-75
2021/12/07 13:39:38;;;;;;;12.45;4.43;;;8.70;99.90;;;;;;5047099;28;20413;-75
2021/12/07 13:42:33;;;;;;;14.93;3.97;;;8.20;99.90;;;;;;5047659;28;20045;-75
2021/12/07 13:45:05;;;;;;;12.00;3.95;;;8.50;99.90;;;;;;5012810;28;20627;-74
2021/12/07 13:47:41;;;;;;;15.23;3.72;;;8.40;99.90;;;;;;5043697;28;20052;-74
2021/12/07 13:50:14;;;;;;;16.40;3.97;;;8.30;99.90;;;;;;5067167;28;20317;-73
2021/12/07 13:52:46;;;;;;;12.70;4.03;;;8.30;99.90;;;;;;5067372;28;20094;-76
2021/12/07 13:55:15;;;;;;;20.08;4.70;;;8.00;99.90;;;;;;5067471;28;20123;-74
2021/12/07 13:57:43;;;;;;;15.25;4.13;;;8.10;99.90;;;;;;5050279;28;20048;-74
2021/12/07 14:00:33;;;;;;;9.75;3.80;;;8.60;99.90;;;;;;5067117;28;20501;-75
2021/12/07 14:03:07;;;;;;;10.32;4.57;;;8.00;99.90;;;;;;5067172;28;20055;-74
2021/12/07 14:05:43;;;;;;;16.40;4.70;;;8.00;99.90;;;;;;5067078;28;20043;-75
2021/12/07 14:08:15;;;;;;;10.98;4.65;;;8.60;99.90;;;;;;5051086;28;20041;-74
2021/12/07 14:10:50;;;;;;;12.95;4.50;;;7.70;99.90;;;;;;5027898;28;20045;-75
2021/12/07 14:13:17;;;;;;;12.20;4.07;;;7.70;99.90;;;;;;5046013;28;20047;-75
2021/12/07 14:15:46;;;;;;;14.65;4.90;;;7.60;99.90;;;;;;5029418;28;20560;-74
2021/12/07 14:18:16;;;;;;;9.93;4.80;;;7.40;99.90;;;;;;5046504;28;20029;-74
2021/12/07 14:20:52;;;;;;;16.42;4.95;;;7.30;99.90;;;;;;5048058;28;20212;-75
2021/12/07 14:23:22;;;;;;;18.58;4.85;;;7.30;99.90;;;;;;5047287;28;20084;-74
2021/12/07 14:26:15;;;;;;;13.98;5.22;;;7.30;99.90;;;;;;5028845;28;20127;-75
2021/12/07 14:28:41;;;;;;;12.75;4.53;;;7.30;99.90;;;;;;5043811;28;20092;-75
2021/12/07 14:31:12;;;;;;;11.35;4.65;;;7.20;99.90;;;;;;5046671;28;20087;-74
2021/12/07 14:33:49;;;;;;;10.90;4.55;;;7.10;99.90;;;;;;5046754;28;20108;-75
2021/12/07 14:36:20;;;;;;;14.68;5.05;;;7.00;99.90;;;;;;5029490;28;20091;-75
2021/12/07 14:38:47;;;;;;;14.20;4.70;;;6.90;99.90;;;;;;5038914;28;20059;-74